sensor_id;sensor_type;location;lat;lon;timestamp;temperature;humidity
40932;DHT22;36257;46.052;12.540;2023-07-24T00:01:16;23.50;97.80
40932;DHT22;36257;46.052;12.540;2023-07-24T00:03:43;23.40;98.30
40932;DHT22;36257;46.052;12.540;2023-07-24T00:06:09;23.40;98.50
40932;DHT22;36257;46.052;12.540;2023-07-24T00:08:35;23.40;99.00
40932;DHT22;36257;46.052;12.540;2023-07-24T00:11:00;23.40;99.00
40932;DHT22;36257;46.052;12.540;2023-07-24T00:13:28;23.40;98.80
40932;DHT22;36257;46.052;12.540;2023-07-24T00:15:53;23.30;99.20
40932;DHT22;36257;46.052;12.540;2023-07-24T00:18:19;23.30;99.70
40932;DHT22;36257;46.052;12.540;2023-07-24T00:20:45;23.20;99.90
40932;DHT22;36257;46.052;12.540;2023-07-24T00:23:10;23.20;99.90
40932;DHT22;36257;46.052;12.540;2023-07-24T00:25:37;23.10;99.90
40932;DHT22;36257;46.052;12.540;2023-07-24T00:28:03;23.20;99.90
40932;DHT22;36257;46.052;12.540;2023-07-24T00:30:28;23.20;99.90
40932;DHT22;36257;46.052;12.540;2023-07-24T00:32:54;23.10;99.90
40932;DHT22;36257;46.052;12.540;2023-07-24T00:35:19;23.10;99.90
40932;DHT22;36257;46.052;12.540;2023-07-24T00:37:45;23.20;99.90
40932;DHT22;36257;46.052;12.540;2023-07-24T00:40:11;23.20;99.90
40932;DHT22;36257;46.052;12.540;2023-07-24T00:42:37;23.10;99.90
40932;DHT22;36257;46.052;12.540;2023-07-24T00:45:02;23.10;99.90
40932;DHT22;36257;46.052;12.540;2023-07-24T00:47:28;23.10;99.90
40932;DHT22;36257;46.052;12.540;2023-07-24T00:49:55;23.10;99.90
40932;DHT22;36257;46.052;12.540;2023-07-24T00:52:21;23.10;99.40
40932;DHT22;36257;46.052;12.540;2023-07-24T00:54:47;23.10;99.70
40932;DHT22;36257;46.052;12.540;2023-07-24T00:57:13;23.10;99.70
40932;DHT22;36257;46.052;12.540;2023-07-24T00:59:40;23.00;99.90
40932;DHT22;36257;46.052;12.540;2023-07-24T01:02:07;23.10;99.30
40932;DHT22;36257;46.052;12.540;2023-07-24T01:04:33;23.10;99.60
40932;DHT22;36257;46.052;12.540;2023-07-24T01:06:59;23.00;99.90
40932;DHT22;36257;46.052;12.540;2023-07-24T01:09:25;23.00;99.90
40932;DHT22;36257;46.052;12.540;2023-07-24T01:11:57;23.00;99.90
40932;DHT22;36257;46.052;12.540;2023-07-24T01:14:36;22.90;99.90
40932;DHT22;36257;46.052;12.540;2023-07-24T01:17:07;22.90;99.90
40932;DHT22;36257;46.052;12.540;2023-07-24T01:19:46;22.90;99.90
40932;DHT22;36257;46.052;12.540;2023-07-24T01:22:39;22.90;99.90
40932;DHT22;36257;46.052;12.540;2023-07-24T01:27:45;22.80;99.90
40932;DHT22;36257;46.052;12.540;2023-07-24T01:30:12;22.80;99.90
40932;DHT22;36257;46.052;12.540;2023-07-24T01:32:38;22.80;99.90
40932;DHT22;36257;46.052;12.540;2023-07-24T01:35:04;22.80;99.90
40932;DHT22;36257;46.052;12.540;2023-07-24T01:37:31;22.90;99.90
40932;DHT22;36257;46.052;12.540;2023-07-24T01:39:57;22.90;99.90
40932;DHT22;36257;46.052;12.540;2023-07-24T01:42:24;22.80;99.90
40932;DHT22;36257;46.052;12.540;2023-07-24T01:44:54;22.70;99.90
40932;DHT22;36257;46.052;12.540;2023-07-24T01:47:21;22.70;99.90
40932;DHT22;36257;46.052;12.540;2023-07-24T01:49:47;22.70;99.90
40932;DHT22;36257;46.052;12.540;2023-07-24T01:52:13;22.60;99.90
40932;DHT22;36257;46.052;12.540;2023-07-24T01:54:39;22.60;99.90
40932;DHT22;36257;46.052;12.540;2023-07-24T01:57:05;22.60;99.90
40932;DHT22;36257;46.052;12.540;2023-07-24T01:59:30;22.60;99.90
40932;DHT22;36257;46.052;12.540;2023-07-24T02:01:56;22.60;99.90
40932;DHT22;36257;46.052;12.540;2023-07-24T02:04:22;22.60;99.90
40932;DHT22;36257;46.052;12.540;2023-07-24T02:06:49;22.60;99.90
40932;DHT22;36257;46.052;12.540;2023-07-24T02:09:15;22.70;99.90
40932;DHT22;36257;46.052;12.540;2023-07-24T02:11:41;22.70;99.90
40932;DHT22;36257;46.052;12.540;2023-07-24T02:14:07;22.80;99.90
40932;DHT22;36257;46.052;12.540;2023-07-24T02:16:33;22.80;99.90
40932;DHT22;36257;46.052;12.540;2023-07-24T02:18:58;22.90;99.80
40932;DHT22;36257;46.052;12.540;2023-07-24T02:21:24;22.90;99.40
40932;DHT22;36257;46.052;12.540;2023-07-24T02:23:49;23.00;99.30
40932;DHT22;36257;46.052;12.540;2023-07-24T02:26:15;23.00;98.90
40932;DHT22;36257;46.052;12.540;2023-07-24T02:28:41;23.00;99.30
40932;DHT22;36257;46.052;12.540;2023-07-24T02:31:06;23.10;99.50
40932;DHT22;36257;46.052;12.540;2023-07-24T02:33:32;23.10;99.40
40932;DHT22;36257;46.052;12.540;2023-07-24T02:35:58;23.10;99.20
40932;DHT22;36257;46.052;12.540;2023-07-24T02:38:23;23.10;98.90
40932;DHT22;36257;46.052;12.540;2023-07-24T02:40:49;23.10;98.70
40932;DHT22;36257;46.052;12.540;2023-07-24T02:43:14;23.00;98.90
40932;DHT22;36257;46.052;12.540;2023-07-24T02:45:40;23.00;98.80
40932;DHT22;36257;46.052;12.540;2023-07-24T02:48:06;23.00;99.10
40932;DHT22;36257;46.052;12.540;2023-07-24T02:50:33;22.90;99.70
40932;DHT22;36257;46.052;12.540;2023-07-24T02:52:59;22.90;99.80
40932;DHT22;36257;46.052;12.540;2023-07-24T02:55:25;22.90;99.80
40932;DHT22;36257;46.052;12.540;2023-07-24T02:57:51;22.70;99.90
40932;DHT22;36257;46.052;12.540;2023-07-24T03:00:16;22.60;99.90
40932;DHT22;36257;46.052;12.540;2023-07-24T03:02:42;22.60;99.90
40932;DHT22;36257;46.052;12.540;2023-07-24T03:05:08;22.60;99.90
40932;DHT22;36257;46.052;12.540;2023-07-24T03:07:34;22.60;99.90
40932;DHT22;36257;46.052;12.540;2023-07-24T03:10:00;22.60;99.90
40932;DHT22;36257;46.052;12.540;2023-07-24T03:12:25;22.60;99.90
40932;DHT22;36257;46.052;12.540;2023-07-24T03:14:51;22.60;99.90
40932;DHT22;36257;46.052;12.540;2023-07-24T03:17:17;22.60;99.90
40932;DHT22;36257;46.052;12.540;2023-07-24T03:19:42;22.60;99.90
40932;DHT22;36257;46.052;12.540;2023-07-24T03:22:08;22.60;99.90
40932;DHT22;36257;46.052;12.540;2023-07-24T03:24:34;22.50;99.90
40932;DHT22;36257;46.052;12.540;2023-07-24T03:27:00;22.50;99.90
40932;DHT22;36257;46.052;12.540;2023-07-24T03:29:26;22.60;99.90
40932;DHT22;36257;46.052;12.540;2023-07-24T03:31:52;22.60;99.90
40932;DHT22;36257;46.052;12.540;2023-07-24T03:34:18;22.50;99.90
40932;DHT22;36257;46.052;12.540;2023-07-24T03:36:43;22.50;99.90
40932;DHT22;36257;46.052;12.540;2023-07-24T03:39:10;22.50;99.90
40932;DHT22;36257;46.052;12.540;2023-07-24T03:41:36;22.30;99.90
40932;DHT22;36257;46.052;12.540;2023-07-24T03:44:02;22.40;99.90
40932;DHT22;36257;46.052;12.540;2023-07-24T03:46:27;22.40;99.90
40932;DHT22;36257;46.052;12.540;2023-07-24T03:48:53;22.40;99.90
40932;DHT22;36257;46.052;12.540;2023-07-24T03:51:19;22.30;99.90
40932;DHT22;36257;46.052;12.540;2023-07-24T03:53:44;22.30;99.90
40932;DHT22;36257;46.052;12.540;2023-07-24T03:56:10;22.30;99.90
40932;DHT22;36257;46.052;12.540;2023-07-24T03:58:37;22.30;99.90
40932;DHT22;36257;46.052;12.540;2023-07-24T04:01:04;22.30;99.90
40932;DHT22;36257;46.052;12.540;2023-07-24T04:03:29;22.30;99.90
40932;DHT22;36257;46.052;12.540;2023-07-24T04:05:55;22.30;99.90
40932;DHT22;36257;46.052;12.540;2023-07-24T04:08:21;22.30;99.90
40932;DHT22;36257;46.052;12.540;2023-07-24T04:10:46;22.20;99.90
40932;DHT22;36257;46.052;12.540;2023-07-24T04:13:12;22.20;99.90
40932;DHT22;36257;46.052;12.540;2023-07-24T04:15:38;22.20;99.90
40932;DHT22;36257;46.052;12.540;2023-07-24T04:18:04;22.30;99.90
40932;DHT22;36257;46.052;12.540;2023-07-24T04:20:30;22.30;99.90
40932;DHT22;36257;46.052;12.540;2023-07-24T04:22:56;22.30;99.90
40932;DHT22;36257;46.052;12.540;2023-07-24T04:25:21;22.30;99.90
40932;DHT22;36257;46.052;12.540;2023-07-24T04:27:47;22.40;99.90
40932;DHT22;36257;46.052;12.540;2023-07-24T04:30:13;22.40;99.90
40932;DHT22;36257;46.052;12.540;2023-07-24T04:32:38;22.50;99.90
40932;DHT22;36257;46.052;12.540;2023-07-24T04:35:04;22.50;99.90
40932;DHT22;36257;46.052;12.540;2023-07-24T04:37:30;22.50;99.90
40932;DHT22;36257;46.052;12.540;2023-07-24T04:39:56;22.60;99.90
40932;DHT22;36257;46.052;12.540;2023-07-24T04:42:22;22.70;99.90
40932;DHT22;36257;46.052;12.540;2023-07-24T04:44:47;22.70;99.90
40932;DHT22;36257;46.052;12.540;2023-07-24T04:47:13;22.80;99.90
40932;DHT22;36257;46.052;12.540;2023-07-24T04:49:38;22.80;99.90
40932;DHT22;36257;46.052;12.540;2023-07-24T04:52:04;22.90;99.90
40932;DHT22;36257;46.052;12.540;2023-07-24T04:54:30;22.90;99.90
40932;DHT22;36257;46.052;12.540;2023-07-24T04:56:55;22.90;99.90
40932;DHT22;36257;46.052;12.540;2023-07-24T04:59:21;23.00;99.90
40932;DHT22;36257;46.052;12.540;2023-07-24T05:01:47;23.00;99.90
40932;DHT22;36257;46.052;12.540;2023-07-24T05:04:12;23.10;99.90
40932;DHT22;36257;46.052;12.540;2023-07-24T05:06:38;23.20;99.90
40932;DHT22;36257;46.052;12.540;2023-07-24T05:09:04;23.20;99.90
40932;DHT22;36257;46.052;12.540;2023-07-24T05:11:30;23.40;99.90
40932;DHT22;36257;46.052;12.540;2023-07-24T05:13:55;23.50;99.90
40932;DHT22;36257;46.052;12.540;2023-07-24T05:16:21;23.60;99.90
40932;DHT22;36257;46.052;12.540;2023-07-24T05:18:46;23.60;99.90
40932;DHT22;36257;46.052;12.540;2023-07-24T05:21:12;23.70;99.90
40932;DHT22;36257;46.052;12.540;2023-07-24T05:23:38;23.80;99.90
40932;DHT22;36257;46.052;12.540;2023-07-24T05:26:04;23.90;99.90
40932;DHT22;36257;46.052;12.540;2023-07-24T05:28:30;24.00;99.90
40932;DHT22;36257;46.052;12.540;2023-07-24T05:31:01;24.30;99.90
40932;DHT22;36257;46.052;12.540;2023-07-24T05:33:27;24.40;99.90
40932;DHT22;36257;46.052;12.540;2023-07-24T05:35:58;24.50;99.90
40932;DHT22;36257;46.052;12.540;2023-07-24T05:38:23;24.60;99.90
40932;DHT22;36257;46.052;12.540;2023-07-24T05:40:57;24.80;99.90
40932;DHT22;36257;46.052;12.540;2023-07-24T05:43:23;24.90;99.90
40932;DHT22;36257;46.052;12.540;2023-07-24T05:45:53;25.00;99.90
40932;DHT22;36257;46.052;12.540;2023-07-24T05:48:19;25.10;99.90
40932;DHT22;36257;46.052;12.540;2023-07-24T05:50:45;25.20;99.40
40932;DHT22;36257;46.052;12.540;2023-07-24T05:53:11;25.40;98.80
40932;DHT22;36257;46.052;12.540;2023-07-24T05:55:36;25.40;97.90
40932;DHT22;36257;46.052;12.540;2023-07-24T05:58:02;25.40;97.00
40932;DHT22;36257;46.052;12.540;2023-07-24T06:00:28;25.40;96.80
40932;DHT22;36257;46.052;12.540;2023-07-24T06:02:53;25.40;97.10
40932;DHT22;36257;46.052;12.540;2023-07-24T06:05:19;25.50;98.50
40932;DHT22;36257;46.052;12.540;2023-07-24T06:07:46;25.50;98.70
40932;DHT22;36257;46.052;12.540;2023-07-24T06:10:12;25.60;98.10
40932;DHT22;36257;46.052;12.540;2023-07-24T06:12:37;25.80;98.30
40932;DHT22;36257;46.052;12.540;2023-07-24T06:15:04;25.90;97.60
40932;DHT22;36257;46.052;12.540;2023-07-24T06:17:30;26.10;97.20
40932;DHT22;36257;46.052;12.540;2023-07-24T06:19:56;26.20;96.20
40932;DHT22;36257;46.052;12.540;2023-07-24T06:22:22;26.20;96.00
40932;DHT22;36257;46.052;12.540;2023-07-24T06:24:48;26.30;96.30
40932;DHT22;36257;46.052;12.540;2023-07-24T06:27:14;26.40;94.50
40932;DHT22;36257;46.052;12.540;2023-07-24T06:29:39;26.60;94.10
40932;DHT22;36257;46.052;12.540;2023-07-24T06:32:06;26.60;94.20
40932;DHT22;36257;46.052;12.540;2023-07-24T06:34:31;26.80;93.80
40932;DHT22;36257;46.052;12.540;2023-07-24T06:36:57;26.80;93.60
40932;DHT22;36257;46.052;12.540;2023-07-24T06:39:23;27.00;93.10
40932;DHT22;36257;46.052;12.540;2023-07-24T06:41:52;27.00;94.40
40932;DHT22;36257;46.052;12.540;2023-07-24T06:44:17;27.20;94.20
40932;DHT22;36257;46.052;12.540;2023-07-24T06:46:43;27.20;94.00
40932;DHT22;36257;46.052;12.540;2023-07-24T06:49:09;27.30;94.40
40932;DHT22;36257;46.052;12.540;2023-07-24T06:51:35;27.20;94.50
40932;DHT22;36257;46.052;12.540;2023-07-24T06:54:01;27.30;94.70
40932;DHT22;36257;46.052;12.540;2023-07-24T06:56:28;27.50;95.40
40932;DHT22;36257;46.052;12.540;2023-07-24T06:58:53;27.60;94.40
40932;DHT22;36257;46.052;12.540;2023-07-24T07:01:19;27.60;94.10
40932;DHT22;36257;46.052;12.540;2023-07-24T07:03:45;27.60;93.00
40932;DHT22;36257;46.052;12.540;2023-07-24T07:06:10;27.60;93.20
40932;DHT22;36257;46.052;12.540;2023-07-24T07:08:37;27.70;92.70
40932;DHT22;36257;46.052;12.540;2023-07-24T07:11:03;27.80;93.10
40932;DHT22;36257;46.052;12.540;2023-07-24T07:13:28;27.90;93.20
40932;DHT22;36257;46.052;12.540;2023-07-24T07:15:54;28.10;91.30
40932;DHT22;36257;46.052;12.540;2023-07-24T07:18:20;28.40;91.30
40932;DHT22;36257;46.052;12.540;2023-07-24T07:20:49;28.50;89.30
40932;DHT22;36257;46.052;12.540;2023-07-24T07:23:15;28.60;89.20
40932;DHT22;36257;46.052;12.540;2023-07-24T07:25:41;28.80;87.90
40932;DHT22;36257;46.052;12.540;2023-07-24T07:28:09;28.90;87.70
40932;DHT22;36257;46.052;12.540;2023-07-24T07:30:34;28.90;86.90
40932;DHT22;36257;46.052;12.540;2023-07-24T07:33:00;28.90;87.00
40932;DHT22;36257;46.052;12.540;2023-07-24T07:35:26;29.00;88.10
40932;DHT22;36257;46.052;12.540;2023-07-24T07:37:52;29.00;85.90
40932;DHT22;36257;46.052;12.540;2023-07-24T07:40:18;29.00;86.90
40932;DHT22;36257;46.052;12.540;2023-07-24T07:42:43;29.00;85.90
40932;DHT22;36257;46.052;12.540;2023-07-24T07:45:10;28.90;85.60
40932;DHT22;36257;46.052;12.540;2023-07-24T07:47:36;28.90;85.90
40932;DHT22;36257;46.052;12.540;2023-07-24T07:50:02;28.80;86.10
40932;DHT22;36257;46.052;12.540;2023-07-24T07:52:28;28.90;87.40
40932;DHT22;36257;46.052;12.540;2023-07-24T07:54:53;29.10;88.50
40932;DHT22;36257;46.052;12.540;2023-07-24T07:57:19;29.20;88.00
40932;DHT22;36257;46.052;12.540;2023-07-24T07:59:45;29.40;87.00
40932;DHT22;36257;46.052;12.540;2023-07-24T08:02:10;29.70;85.10
40932;DHT22;36257;46.052;12.540;2023-07-24T08:04:36;29.80;85.10
40932;DHT22;36257;46.052;12.540;2023-07-24T08:07:02;30.00;87.80
40932;DHT22;36257;46.052;12.540;2023-07-24T08:09:28;30.20;83.40
40932;DHT22;36257;46.052;12.540;2023-07-24T08:11:53;30.20;83.10
40932;DHT22;36257;46.052;12.540;2023-07-24T08:14:19;30.20;83.10
40932;DHT22;36257;46.052;12.540;2023-07-24T08:16:48;30.20;83.70
40932;DHT22;36257;46.052;12.540;2023-07-24T08:19:13;30.10;84.30
40932;DHT22;36257;46.052;12.540;2023-07-24T08:21:39;30.00;84.10
40932;DHT22;36257;46.052;12.540;2023-07-24T08:24:06;30.00;84.50
40932;DHT22;36257;46.052;12.540;2023-07-24T08:26:31;30.00;85.10
40932;DHT22;36257;46.052;12.540;2023-07-24T08:28:57;30.20;83.80
40932;DHT22;36257;46.052;12.540;2023-07-24T08:31:23;30.40;83.70
40932;DHT22;36257;46.052;12.540;2023-07-24T08:33:48;30.60;83.00
40932;DHT22;36257;46.052;12.540;2023-07-24T08:36:14;30.70;84.30
40932;DHT22;36257;46.052;12.540;2023-07-24T08:38:40;30.90;84.20
40932;DHT22;36257;46.052;12.540;2023-07-24T08:41:07;31.20;83.70
40932;DHT22;36257;46.052;12.540;2023-07-24T08:43:34;31.50;80.90
40932;DHT22;36257;46.052;12.540;2023-07-24T08:46:01;31.60;81.70
40932;DHT22;36257;46.052;12.540;2023-07-24T08:48:32;31.60;82.20
40932;DHT22;36257;46.052;12.540;2023-07-24T08:51:05;31.50;80.60
40932;DHT22;36257;46.052;12.540;2023-07-24T08:53:39;31.10;81.70
40932;DHT22;36257;46.052;12.540;2023-07-24T08:56:07;30.90;82.60
40932;DHT22;36257;46.052;12.540;2023-07-24T08:58:33;30.60;83.10
40932;DHT22;36257;46.052;12.540;2023-07-24T09:01:00;30.00;84.20
40932;DHT22;36257;46.052;12.540;2023-07-24T09:03:26;29.60;85.50
40932;DHT22;36257;46.052;12.540;2023-07-24T09:05:52;29.40;86.80
40932;DHT22;36257;46.052;12.540;2023-07-24T09:08:46;29.30;85.80
40932;DHT22;36257;46.052;12.540;2023-07-24T09:11:14;29.40;86.50
40932;DHT22;36257;46.052;12.540;2023-07-24T09:13:47;29.60;87.70
40932;DHT22;36257;46.052;12.540;2023-07-24T09:16:25;30.00;83.50
40932;DHT22;36257;46.052;12.540;2023-07-24T09:18:52;30.00;84.40
40932;DHT22;36257;46.052;12.540;2023-07-24T09:21:31;30.00;85.20
40932;DHT22;36257;46.052;12.540;2023-07-24T09:24:08;30.20;84.20
40932;DHT22;36257;46.052;12.540;2023-07-24T09:26:33;30.50;84.20
40932;DHT22;36257;46.052;12.540;2023-07-24T09:28:59;30.80;85.20
40932;DHT22;36257;46.052;12.540;2023-07-24T09:31:35;30.60;83.30
40932;DHT22;36257;46.052;12.540;2023-07-24T09:34:01;30.40;82.70
40932;DHT22;36257;46.052;12.540;2023-07-24T09:36:37;30.10;84.60
40932;DHT22;36257;46.052;12.540;2023-07-24T09:39:02;29.90;84.20
40932;DHT22;36257;46.052;12.540;2023-07-24T09:41:31;29.60;86.10
40932;DHT22;36257;46.052;12.540;2023-07-24T09:44:00;29.50;86.40
40932;DHT22;36257;46.052;12.540;2023-07-24T09:46:26;29.40;88.80
40932;DHT22;36257;46.052;12.540;2023-07-24T09:48:54;29.40;91.30
40932;DHT22;36257;46.052;12.540;2023-07-24T09:51:20;29.30;92.60
40932;DHT22;36257;46.052;12.540;2023-07-24T09:53:58;29.30;92.40
40932;DHT22;36257;46.052;12.540;2023-07-24T09:56:24;29.20;94.50
40932;DHT22;36257;46.052;12.540;2023-07-24T09:58:52;29.10;94.90
40932;DHT22;36257;46.052;12.540;2023-07-24T10:01:20;29.10;95.00
40932;DHT22;36257;46.052;12.540;2023-07-24T10:03:48;29.20;95.50
40932;DHT22;36257;46.052;12.540;2023-07-24T10:06:16;29.20;95.20
40932;DHT22;36257;46.052;12.540;2023-07-24T10:08:42;29.40;95.80
40932;DHT22;36257;46.052;12.540;2023-07-24T10:11:09;29.40;95.50
40932;DHT22;36257;46.052;12.540;2023-07-24T10:13:36;29.60;95.00
40932;DHT22;36257;46.052;12.540;2023-07-24T10:16:03;29.60;94.20
40932;DHT22;36257;46.052;12.540;2023-07-24T10:18:33;29.60;95.00
40932;DHT22;36257;46.052;12.540;2023-07-24T10:23:27;29.40;90.20
40932;DHT22;36257;46.052;12.540;2023-07-24T10:25:53;29.20;90.00
40932;DHT22;36257;46.052;12.540;2023-07-24T10:28:19;29.00;92.50
40932;DHT22;36257;46.052;12.540;2023-07-24T10:30:55;28.90;92.90
40932;DHT22;36257;46.052;12.540;2023-07-24T10:33:22;28.90;92.90
40932;DHT22;36257;46.052;12.540;2023-07-24T10:35:53;28.70;94.50
40932;DHT22;36257;46.052;12.540;2023-07-24T10:38:18;28.50;94.80
40932;DHT22;36257;46.052;12.540;2023-07-24T10:40:46;28.30;95.90
40932;DHT22;36257;46.052;12.540;2023-07-24T10:43:17;28.10;97.60
40932;DHT22;36257;46.052;12.540;2023-07-24T10:45:52;27.90;99.70
40932;DHT22;36257;46.052;12.540;2023-07-24T10:48:19;27.80;99.90
40932;DHT22;36257;46.052;12.540;2023-07-24T10:50:47;27.70;99.90
40932;DHT22;36257;46.052;12.540;2023-07-24T10:53:20;27.60;99.90
40932;DHT22;36257;46.052;12.540;2023-07-24T10:55:47;27.40;99.90
40932;DHT22;36257;46.052;12.540;2023-07-24T10:58:13;27.40;99.90
40932;DHT22;36257;46.052;12.540;2023-07-24T11:00:40;27.40;99.90
40932;DHT22;36257;46.052;12.540;2023-07-24T11:03:13;27.50;99.90
40932;DHT22;36257;46.052;12.540;2023-07-24T11:05:43;27.60;99.90
40932;DHT22;36257;46.052;12.540;2023-07-24T11:08:11;27.60;99.90
40932;DHT22;36257;46.052;12.540;2023-07-24T11:10:55;27.60;99.90
40932;DHT22;36257;46.052;12.540;2023-07-24T11:13:26;27.60;99.90
40932;DHT22;36257;46.052;12.540;2023-07-24T11:15:53;27.40;99.90
40932;DHT22;36257;46.052;12.540;2023-07-24T11:18:20;27.30;99.90
40932;DHT22;36257;46.052;12.540;2023-07-24T11:20:52;27.10;99.90
40932;DHT22;36257;46.052;12.540;2023-07-24T11:23:18;27.00;99.90
40932;DHT22;36257;46.052;12.540;2023-07-24T11:25:45;27.20;99.90
40932;DHT22;36257;46.052;12.540;2023-07-24T11:28:12;27.50;99.90
40932;DHT22;36257;46.052;12.540;2023-07-24T11:30:38;27.80;99.90
40932;DHT22;36257;46.052;12.540;2023-07-24T11:33:07;28.00;99.90
40932;DHT22;36257;46.052;12.540;2023-07-24T11:35:33;28.20;99.90
40932;DHT22;36257;46.052;12.540;2023-07-24T11:37:59;28.40;99.90
40932;DHT22;36257;46.052;12.540;2023-07-24T11:40:42;28.40;99.10
40932;DHT22;36257;46.052;12.540;2023-07-24T11:43:20;28.40;98.90
40932;DHT22;36257;46.052;12.540;2023-07-24T11:45:47;28.30;98.90
40932;DHT22;36257;46.052;12.540;2023-07-24T11:48:23;28.40;98.80
40932;DHT22;36257;46.052;12.540;2023-07-24T11:50:51;28.40;98.40
40932;DHT22;36257;46.052;12.540;2023-07-24T11:53:24;28.50;98.70
40932;DHT22;36257;46.052;12.540;2023-07-24T11:55:52;28.70;98.20
40932;DHT22;36257;46.052;12.540;2023-07-24T11:58:17;28.70;98.30
40932;DHT22;36257;46.052;12.540;2023-07-24T12:00:44;28.70;97.60
40932;DHT22;36257;46.052;12.540;2023-07-24T12:03:10;28.70;97.20
40932;DHT22;36257;46.052;12.540;2023-07-24T12:05:43;28.70;96.30
40932;DHT22;36257;46.052;12.540;2023-07-24T12:08:09;28.80;95.70
40932;DHT22;36257;46.052;12.540;2023-07-24T12:10:38;28.90;96.00
40932;DHT22;36257;46.052;12.540;2023-07-24T12:13:05;28.90;96.80
40932;DHT22;36257;46.052;12.540;2023-07-24T12:15:31;29.10;96.20
40932;DHT22;36257;46.052;12.540;2023-07-24T12:17:56;29.10;94.70
40932;DHT22;36257;46.052;12.540;2023-07-24T12:20:23;29.00;93.20
40932;DHT22;36257;46.052;12.540;2023-07-24T12:22:49;28.90;93.00
40932;DHT22;36257;46.052;12.540;2023-07-24T12:25:14;28.90;93.10
40932;DHT22;36257;46.052;12.540;2023-07-24T12:27:43;28.80;93.00
40932;DHT22;36257;46.052;12.540;2023-07-24T12:30:09;28.70;94.70
40932;DHT22;36257;46.052;12.540;2023-07-24T12:32:35;28.60;94.20
40932;DHT22;36257;46.052;12.540;2023-07-24T12:35:00;28.60;94.60
40932;DHT22;36257;46.052;12.540;2023-07-24T12:37:26;28.50;94.50
40932;DHT22;36257;46.052;12.540;2023-07-24T12:39:52;28.50;95.00
40932;DHT22;36257;46.052;12.540;2023-07-24T12:42:18;28.40;94.60
40932;DHT22;36257;46.052;12.540;2023-07-24T12:44:44;28.30;95.20
40932;DHT22;36257;46.052;12.540;2023-07-24T12:47:11;28.30;96.00
40932;DHT22;36257;46.052;12.540;2023-07-24T12:49:37;28.20;97.30
40932;DHT22;36257;46.052;12.540;2023-07-24T12:52:03;28.10;97.70
40932;DHT22;36257;46.052;12.540;2023-07-24T12:54:29;28.20;96.70
40932;DHT22;36257;46.052;12.540;2023-07-24T12:56:55;28.20;95.50
40932;DHT22;36257;46.052;12.540;2023-07-24T12:59:20;28.10;96.70
40932;DHT22;36257;46.052;12.540;2023-07-24T13:01:46;28.00;94.60
40932;DHT22;36257;46.052;12.540;2023-07-24T13:04:12;28.00;96.10
40932;DHT22;36257;46.052;12.540;2023-07-24T13:06:38;27.80;97.60
40932;DHT22;36257;46.052;12.540;2023-07-24T13:09:04;27.80;98.60
40932;DHT22;36257;46.052;12.540;2023-07-24T13:11:30;27.60;97.90
40932;DHT22;36257;46.052;12.540;2023-07-24T13:13:56;27.70;98.80
40932;DHT22;36257;46.052;12.540;2023-07-24T13:16:23;27.60;99.90
40932;DHT22;36257;46.052;12.540;2023-07-24T13:18:49;27.50;99.90
40932;DHT22;36257;46.052;12.540;2023-07-24T13:21:15;27.40;99.90
40932;DHT22;36257;46.052;12.540;2023-07-24T13:23:41;27.40;99.90
40932;DHT22;36257;46.052;12.540;2023-07-24T13:26:08;27.20;99.90
40932;DHT22;36257;46.052;12.540;2023-07-24T13:28:35;27.00;99.90
40932;DHT22;36257;46.052;12.540;2023-07-24T13:31:18;27.00;99.90
40932;DHT22;36257;46.052;12.540;2023-07-24T13:33:44;27.00;99.90
40932;DHT22;36257;46.052;12.540;2023-07-24T13:36:09;26.90;99.90
40932;DHT22;36257;46.052;12.540;2023-07-24T13:38:35;26.90;99.90
40932;DHT22;36257;46.052;12.540;2023-07-24T13:41:01;26.90;99.90
40932;DHT22;36257;46.052;12.540;2023-07-24T13:43:28;26.90;99.90
40932;DHT22;36257;46.052;12.540;2023-07-24T13:45:54;26.80;99.90
40932;DHT22;36257;46.052;12.540;2023-07-24T13:48:20;26.70;99.90
40932;DHT22;36257;46.052;12.540;2023-07-24T13:50:46;26.60;99.90
40932;DHT22;36257;46.052;12.540;2023-07-24T13:53:11;26.50;99.90
40932;DHT22;36257;46.052;12.540;2023-07-24T13:55:37;26.50;99.90
40932;DHT22;36257;46.052;12.540;2023-07-24T13:58:03;26.40;99.90
40932;DHT22;36257;46.052;12.540;2023-07-24T14:00:29;26.30;99.90
40932;DHT22;36257;46.052;12.540;2023-07-24T14:02:54;26.00;99.90
40932;DHT22;36257;46.052;12.540;2023-07-24T14:05:20;25.90;99.90
40932;DHT22;36257;46.052;12.540;2023-07-24T14:07:46;25.90;99.90
40932;DHT22;36257;46.052;12.540;2023-07-24T14:10:12;25.70;99.90
40932;DHT22;36257;46.052;12.540;2023-07-24T14:12:37;25.70;99.90
40932;DHT22;36257;46.052;12.540;2023-07-24T14:15:03;25.60;99.90
40932;DHT22;36257;46.052;12.540;2023-07-24T14:17:29;25.60;99.90
40932;DHT22;36257;46.052;12.540;2023-07-24T14:19:55;25.60;99.90
40932;DHT22;36257;46.052;12.540;2023-07-24T14:22:21;25.70;99.90
40932;DHT22;36257;46.052;12.540;2023-07-24T14:24:46;25.70;99.40
40932;DHT22;36257;46.052;12.540;2023-07-24T14:27:15;25.70;99.30
40932;DHT22;36257;46.052;12.540;2023-07-24T14:29:41;25.80;98.90
40932;DHT22;36257;46.052;12.540;2023-07-24T14:32:07;25.80;99.20
40932;DHT22;36257;46.052;12.540;2023-07-24T14:34:34;25.70;97.40
40932;DHT22;36257;46.052;12.540;2023-07-24T14:36:59;25.70;97.00
40932;DHT22;36257;46.052;12.540;2023-07-24T14:39:25;25.70;97.00
40932;DHT22;36257;46.052;12.540;2023-07-24T14:41:51;25.60;96.60
40932;DHT22;36257;46.052;12.540;2023-07-24T14:44:16;25.50;96.50
40932;DHT22;36257;46.052;12.540;2023-07-24T14:46:42;25.10;98.10
40932;DHT22;36257;46.052;12.540;2023-07-24T14:49:08;24.90;95.80
40932;DHT22;36257;46.052;12.540;2023-07-24T14:51:33;24.80;94.20
40932;DHT22;36257;46.052;12.540;2023-07-24T14:53:59;24.60;95.50
40932;DHT22;36257;46.052;12.540;2023-07-24T14:56:25;24.40;97.50
40932;DHT22;36257;46.052;12.540;2023-07-24T14:58:50;24.20;99.60
40932;DHT22;36257;46.052;12.540;2023-07-24T15:01:16;24.10;99.90
40932;DHT22;36257;46.052;12.540;2023-07-24T15:03:42;24.20;99.90
40932;DHT22;36257;46.052;12.540;2023-07-24T15:06:07;24.20;99.90
40932;DHT22;36257;46.052;12.540;2023-07-24T16:05:26;25.80;87.20
40932;DHT22;36257;46.052;12.540;2023-07-24T16:07:52;25.90;87.40
40932;DHT22;36257;46.052;12.540;2023-07-24T16:10:17;25.90;87.10
40932;DHT22;36257;46.052;12.540;2023-07-24T16:12:43;25.90;87.60
40932;DHT22;36257;46.052;12.540;2023-07-24T16:15:09;26.10;89.40